sensor_id;sensor_type;location;lat;lon;timestamp;pressure;altitude;pressure_sealevel;temperature;humidity
61292;BME280;47165;42.664;23.368;2022-09-17T00:01:46;94204.09;;;20.13;71.62
61292;BME280;47165;42.664;23.368;2022-09-17T00:04:12;94190.50;;;20.07;71.83
61292;BME280;47165;42.664;23.368;2022-09-17T00:06:37;94189.38;;;20.10;71.67
61292;BME280;47165;42.664;23.368;2022-09-17T00:09:06;94189.69;;;20.15;71.28
61292;BME280;47165;42.664;23.368;2022-09-17T00:11:35;94192.69;;;20.12;70.71
61292;BME280;47165;42.664;23.368;2022-09-17T00:14:02;94170.16;;;19.92;71.88
61292;BME280;47165;42.664;23.368;2022-09-17T00:19:00;94162.66;;;19.87;71.82
61292;BME280;47165;42.664;23.368;2022-09-17T00:21:25;94162.00;;;19.93;72.04
61292;BME280;47165;42.664;23.368;2022-09-17T00:23:59;94165.16;;;19.88;71.70
61292;BME280;47165;42.664;23.368;2022-09-17T00:26:26;94155.88;;;19.93;71.68
61292;BME280;47165;42.664;23.368;2022-09-17T00:28:52;94153.91;;;19.95;71.76
61292;BME280;47165;42.664;23.368;2022-09-17T00:31:19;94158.81;;;19.48;72.67
61292;BME280;47165;42.664;23.368;2022-09-17T00:33:44;94167.06;;;19.54;72.65
61292;BME280;47165;42.664;23.368;2022-09-17T00:36:10;94163.78;;;19.60;72.59
61292;BME280;47165;42.664;23.368;2022-09-17T00:38:35;94169.06;;;19.60;73.03
61292;BME280;47165;42.664;23.368;2022-09-17T00:41:02;94165.78;;;19.66;72.87
61292;BME280;47165;42.664;23.368;2022-09-17T00:43:43;94180.00;;;19.57;73.11
61292;BME280;47165;42.664;23.368;2022-09-17T00:46:22;94185.41;;;19.39;74.18
61292;BME280;47165;42.664;23.368;2022-09-17T00:48:48;94173.34;;;19.44;74.23
61292;BME280;47165;42.664;23.368;2022-09-17T00:51:18;94193.72;;;19.60;74.12
61292;BME280;47165;42.664;23.368;2022-09-17T00:53:45;94179.66;;;19.60;74.00
61292;BME280;47165;42.664;23.368;2022-09-17T00:56:23;94174.09;;;19.71;73.42
61292;BME280;47165;42.664;23.368;2022-09-17T00:58:50;94183.03;;;19.78;73.20
61292;BME280;47165;42.664;23.368;2022-09-17T01:01:17;94193.97;;;19.83;72.87
61292;BME280;47165;42.664;23.368;2022-09-17T01:03:43;94193.31;;;19.89;72.65
61292;BME280;47165;42.664;23.368;2022-09-17T01:06:28;94204.09;;;19.96;72.21
61292;BME280;47165;42.664;23.368;2022-09-17T01:17:40;94174.66;;;19.40;74.70
61292;BME280;47165;42.664;23.368;2022-09-17T01:33:59;94187.25;;;19.46;75.41
61292;BME280;47165;42.664;23.368;2022-09-17T01:39:14;94176.03;;;19.61;74.43
61292;BME280;47165;42.664;23.368;2022-09-17T01:47:33;94153.50;;;19.48;74.99
61292;BME280;47165;42.664;23.368;2022-09-17T01:50:04;94137.78;;;19.47;74.89
61292;BME280;47165;42.664;23.368;2022-09-17T01:52:33;94142.03;;;19.32;75.23
61292;BME280;47165;42.664;23.368;2022-09-17T01:55:04;94091.09;;;19.38;75.25
61292;BME280;47165;42.664;23.368;2022-09-17T01:57:35;94121.28;;;19.02;76.92
61292;BME280;47165;42.664;23.368;2022-09-17T02:00:08;94135.22;;;19.21;76.03
61292;BME280;47165;42.664;23.368;2022-09-17T02:02:47;94160.75;;;19.38;75.23
61292;BME280;47165;42.664;23.368;2022-09-17T02:05:54;94150.00;;;19.48;74.70
61292;BME280;47165;42.664;23.368;2022-09-17T02:08:29;94140.25;;;19.40;74.82
61292;BME280;47165;42.664;23.368;2022-09-17T02:11:09;94118.72;;;19.43;74.70
61292;BME280;47165;42.664;23.368;2022-09-17T02:16:36;94107.63;;;19.32;74.50
61292;BME280;47165;42.664;23.368;2022-09-17T02:19:10;94088.78;;;19.35;74.48
61292;BME280;47165;42.664;23.368;2022-09-17T02:27:22;94040.56;;;18.98;76.34
61292;BME280;47165;42.664;23.368;2022-09-17T02:29:50;94019.78;;;19.12;75.57
61292;BME280;47165;42.664;23.368;2022-09-17T02:32:16;93992.16;;;19.22;75.00
61292;BME280;47165;42.664;23.368;2022-09-17T02:34:41;93977.75;;;19.00;73.49
61292;BME280;47165;42.664;23.368;2022-09-17T02:37:07;94004.22;;;19.25;73.46
61292;BME280;47165;42.664;23.368;2022-09-17T02:39:33;94043.78;;;19.26;72.76
61292;BME280;47165;42.664;23.368;2022-09-17T02:51:04;94045.41;;;19.60;71.90
61292;BME280;47165;42.664;23.368;2022-09-17T02:58:59;94079.84;;;19.36;72.89
61292;BME280;47165;42.664;23.368;2022-09-17T03:01:43;94051.56;;;19.44;72.47
61292;BME280;47165;42.664;23.368;2022-09-17T03:04:14;94028.88;;;19.50;72.61
61292;BME280;47165;42.664;23.368;2022-09-17T03:06:44;94032.19;;;19.52;72.26
61292;BME280;47165;42.664;23.368;2022-09-17T03:09:10;94027.25;;;19.49;71.84
61292;BME280;47165;42.664;23.368;2022-09-17T03:11:35;94007.69;;;19.42;72.06
61292;BME280;47165;42.664;23.368;2022-09-17T03:14:01;94006.56;;;19.53;71.73
61292;BME280;47165;42.664;23.368;2022-09-17T03:16:26;94026.88;;;19.60;71.74
61292;BME280;47165;42.664;23.368;2022-09-17T03:18:52;94030.84;;;19.64;71.96
61292;BME280;47165;42.664;23.368;2022-09-17T03:21:17;94020.59;;;19.69;72.10
61292;BME280;47165;42.664;23.368;2022-09-17T03:23:43;94012.34;;;19.73;71.52
61292;BME280;47165;42.664;23.368;2022-09-17T03:26:08;94029.06;;;19.40;72.57
61292;BME280;47165;42.664;23.368;2022-09-17T03:28:33;94035.34;;;19.47;72.21
61292;BME280;47165;42.664;23.368;2022-09-17T03:30:59;94012.84;;;19.43;72.23
61292;BME280;47165;42.664;23.368;2022-09-17T03:33:24;94015.16;;;19.46;72.50
61292;BME280;47165;42.664;23.368;2022-09-17T03:35:50;94015.63;;;19.50;72.26
61292;BME280;47165;42.664;23.368;2022-09-17T03:38:15;94006.38;;;19.46;72.48
61292;BME280;47165;42.664;23.368;2022-09-17T03:40:41;94025.41;;;19.41;72.21
61292;BME280;47165;42.664;23.368;2022-09-17T03:43:07;94010.53;;;19.24;72.89
61292;BME280;47165;42.664;23.368;2022-09-17T03:45:33;94001.06;;;19.29;72.62
61292;BME280;47165;42.664;23.368;2022-09-17T03:47:58;93994.00;;;19.30;72.83
61292;BME280;47165;42.664;23.368;2022-09-17T03:50:23;93980.91;;;19.20;73.01
61292;BME280;47165;42.664;23.368;2022-09-17T03:52:49;93993.31;;;19.28;73.24
61292;BME280;47165;42.664;23.368;2022-09-17T03:55:14;93963.34;;;19.36;73.07
61292;BME280;47165;42.664;23.368;2022-09-17T03:57:41;94001.75;;;19.32;72.95
61292;BME280;47165;42.664;23.368;2022-09-17T04:00:08;93982.91;;;19.35;72.90
61292;BME280;47165;42.664;23.368;2022-09-17T04:02:33;94000.25;;;19.37;72.97
61292;BME280;47165;42.664;23.368;2022-09-17T04:04:59;93997.63;;;19.37;73.47
61292;BME280;47165;42.664;23.368;2022-09-17T04:07:24;94002.91;;;19.45;73.11
61292;BME280;47165;42.664;23.368;2022-09-17T04:09:50;94009.19;;;19.53;72.72
61292;BME280;47165;42.664;23.368;2022-09-17T04:12:15;94019.78;;;19.61;72.45
61292;BME280;47165;42.664;23.368;2022-09-17T04:14:41;94018.28;;;19.66;72.55
61292;BME280;47165;42.664;23.368;2022-09-17T04:17:06;94023.94;;;19.72;72.42
61292;BME280;47165;42.664;23.368;2022-09-17T04:19:32;94022.94;;;19.73;72.09
61292;BME280;47165;42.664;23.368;2022-09-17T04:21:57;94049.75;;;19.78;71.69
61292;BME280;47165;42.664;23.368;2022-09-17T04:24:22;94065.50;;;19.79;71.56
61292;BME280;47165;42.664;23.368;2022-09-17T04:26:48;94093.78;;;19.79;71.60
61292;BME280;47165;42.664;23.368;2022-09-17T04:29:13;94095.31;;;19.81;71.46
61292;BME280;47165;42.664;23.368;2022-09-17T04:31:38;94102.59;;;19.79;71.64
61292;BME280;47165;42.664;23.368;2022-09-17T04:34:04;94112.47;;;19.69;71.73
61292;BME280;47165;42.664;23.368;2022-09-17T04:36:30;94106.72;;;19.74;71.30
61292;BME280;47165;42.664;23.368;2022-09-17T04:38:55;94120.94;;;19.81;71.17
61292;BME280;47165;42.664;23.368;2022-09-17T04:41:20;94124.75;;;19.86;71.28
61292;BME280;47165;42.664;23.368;2022-09-17T04:43:46;94134.03;;;19.90;71.46
61292;BME280;47165;42.664;23.368;2022-09-17T04:46:11;94146.97;;;19.94;71.12
61292;BME280;47165;42.664;23.368;2022-09-17T04:48:38;94159.19;;;19.78;71.21
61292;BME280;47165;42.664;23.368;2022-09-17T04:51:03;94164.19;;;19.81;71.40
61292;BME280;47165;42.664;23.368;2022-09-17T04:53:29;94163.16;;;19.74;72.21
61292;BME280;47165;42.664;23.368;2022-09-17T04:55:54;94170.94;;;19.76;72.08
61292;BME280;47165;42.664;23.368;2022-09-17T04:58:20;94187.00;;;19.74;72.47
61292;BME280;47165;42.664;23.368;2022-09-17T05:00:45;94187.66;;;19.76;72.15
61292;BME280;47165;42.664;23.368;2022-09-17T05:03:11;94178.56;;;19.79;72.07
61292;BME280;47165;42.664;23.368;2022-09-17T05:05:36;94171.13;;;19.82;72.38
61292;BME280;47165;42.664;23.368;2022-09-17T05:08:02;94174.13;;;19.87;71.96
61292;BME280;47165;42.664;23.368;2022-09-17T05:10:27;94171.28;;;19.89;72.58
61292;BME280;47165;42.664;23.368;2022-09-17T05:12:55;94172.44;;;19.95;72.71
61292;BME280;47165;42.664;23.368;2022-09-17T05:15:21;94169.28;;;19.91;72.95
61292;BME280;47165;42.664;23.368;2022-09-17T05:17:49;94165.97;;;19.97;72.83
61292;BME280;47165;42.664;23.368;2022-09-17T05:20:15;94158.88;;;19.98;73.30
61292;BME280;47165;42.664;23.368;2022-09-17T05:22:47;94152.25;;;19.94;73.29
61292;BME280;47165;42.664;23.368;2022-09-17T05:25:14;94123.78;;;19.96;73.34
61292;BME280;47165;42.664;23.368;2022-09-17T05:27:40;94115.81;;;19.96;72.98
61292;BME280;47165;42.664;23.368;2022-09-17T05:30:07;94117.81;;;20.02;72.39
61292;BME280;47165;42.664;23.368;2022-09-17T05:32:33;94110.16;;;20.07;72.32
61292;BME280;47165;42.664;23.368;2022-09-17T05:34:59;94114.97;;;20.12;72.60
61292;BME280;47165;42.664;23.368;2022-09-17T05:37:25;94123.44;;;19.99;73.10
61292;BME280;47165;42.664;23.368;2022-09-17T05:39:50;94141.66;;;20.10;73.04
61292;BME280;47165;42.664;23.368;2022-09-17T05:42:16;94145.63;;;20.14;73.42
61292;BME280;47165;42.664;23.368;2022-09-17T05:44:42;94142.47;;;20.10;74.05
61292;BME280;47165;42.664;23.368;2022-09-17T05:47:07;94142.78;;;20.16;73.92
61292;BME280;47165;42.664;23.368;2022-09-17T05:49:33;94150.72;;;20.24;73.93
61292;BME280;47165;42.664;23.368;2022-09-17T05:52:13;94155.56;;;20.28;73.89
61292;BME280;47165;42.664;23.368;2022-09-17T05:54:38;94153.38;;;20.32;73.93
61292;BME280;47165;42.664;23.368;2022-09-17T05:57:04;94163.16;;;20.23;74.45
61292;BME280;47165;42.664;23.368;2022-09-17T05:59:30;94149.91;;;20.15;74.42
61292;BME280;47165;42.664;23.368;2022-09-17T06:01:55;94145.63;;;20.22;74.30
61292;BME280;47165;42.664;23.368;2022-09-17T06:04:21;94138.31;;;20.24;73.82
61292;BME280;47165;42.664;23.368;2022-09-17T06:06:46;94136.81;;;20.30;73.89
61292;BME280;47165;42.664;23.368;2022-09-17T06:09:12;94152.91;;;20.37;73.95
61292;BME280;47165;42.664;23.368;2022-09-17T06:11:38;94141.63;;;20.43;73.96
61292;BME280;47165;42.664;23.368;2022-09-17T06:14:03;94143.94;;;20.38;74.14
61292;BME280;47165;42.664;23.368;2022-09-17T06:16:29;94163.81;;;20.34;74.75
61292;BME280;47165;42.664;23.368;2022-09-17T06:18:54;94157.34;;;20.36;74.68
61292;BME280;47165;42.664;23.368;2022-09-17T06:21:20;94180.72;;;20.41;74.25
61292;BME280;47165;42.664;23.368;2022-09-17T06:23:48;94203.25;;;20.45;74.50
61292;BME280;47165;42.664;23.368;2022-09-17T06:26:13;94217.19;;;20.47;74.19
61292;BME280;47165;42.664;23.368;2022-09-17T06:28:39;94223.97;;;20.49;74.00
61292;BME280;47165;42.664;23.368;2022-09-17T06:31:06;94220.50;;;20.49;73.83
61292;BME280;47165;42.664;23.368;2022-09-17T06:33:32;94235.09;;;20.45;73.79
61292;BME280;47165;42.664;23.368;2022-09-17T06:36:06;94226.47;;;20.51;72.86
61292;BME280;47165;42.664;23.368;2022-09-17T06:38:32;94249.97;;;20.54;72.94
61292;BME280;47165;42.664;23.368;2022-09-17T06:40:58;94243.72;;;20.47;73.40
61292;BME280;47165;42.664;23.368;2022-09-17T06:43:24;94253.81;;;20.43;73.49
61292;BME280;47165;42.664;23.368;2022-09-17T06:46:00;94236.06;;;20.44;73.50
61292;BME280;47165;42.664;23.368;2022-09-17T06:48:28;94221.16;;;20.43;73.09
61292;BME280;47165;42.664;23.368;2022-09-17T06:50:54;94200.78;;;20.43;73.16
61292;BME280;47165;42.664;23.368;2022-09-17T06:53:21;94201.28;;;20.47;73.23
61292;BME280;47165;42.664;23.368;2022-09-17T06:55:47;94205.72;;;20.46;73.89
61292;BME280;47165;42.664;23.368;2022-09-17T06:58:12;94203.56;;;20.50;74.01
61292;BME280;47165;42.664;23.368;2022-09-17T07:00:38;94194.66;;;20.26;75.52
61292;BME280;47165;42.664;23.368;2022-09-17T07:03:03;94194.97;;;20.32;75.33
61292;BME280;47165;42.664;23.368;2022-09-17T07:05:29;94192.16;;;20.41;75.03
61292;BME280;47165;42.664;23.368;2022-09-17T07:07:59;94176.09;;;20.26;74.65
61292;BME280;47165;42.664;23.368;2022-09-17T07:10:26;94158.69;;;20.32;74.43
61292;BME280;47165;42.664;23.368;2022-09-17T07:12:51;94157.34;;;20.44;74.30
61292;BME280;47165;42.664;23.368;2022-09-17T07:15:17;94141.41;;;20.53;74.71
61292;BME280;47165;42.664;23.368;2022-09-17T07:17:43;94130.13;;;20.67;74.48
61292;BME280;47165;42.664;23.368;2022-09-17T07:20:10;94118.16;;;20.79;74.34
61292;BME280;47165;42.664;23.368;2022-09-17T07:22:35;94104.78;;;20.64;75.34
61292;BME280;47165;42.664;23.368;2022-09-17T07:25:01;94107.84;;;20.84;74.87
61292;BME280;47165;42.664;23.368;2022-09-17T07:27:27;94110.44;;;21.01;74.44
61292;BME280;47165;42.664;23.368;2022-09-17T07:29:53;94109.72;;;21.15;74.19
61292;BME280;47165;42.664;23.368;2022-09-17T07:32:19;94114.81;;;21.25;73.33
61292;BME280;47165;42.664;23.368;2022-09-17T07:34:45;94127.38;;;21.31;73.30
61292;BME280;47165;42.664;23.368;2022-09-17T07:37:10;94116.22;;;21.44;72.33
61292;BME280;47165;42.664;23.368;2022-09-17T07:39:36;94113.03;;;21.48;71.99
61292;BME280;47165;42.664;23.368;2022-09-17T07:42:02;94116.28;;;21.59;71.62
61292;BME280;47165;42.664;23.368;2022-09-17T07:44:29;94117.56;;;21.63;71.78
61292;BME280;47165;42.664;23.368;2022-09-17T07:46:54;94109.56;;;21.71;71.70
61292;BME280;47165;42.664;23.368;2022-09-17T07:49:20;94114.03;;;21.70;71.25
61292;BME280;47165;42.664;23.368;2022-09-17T07:51:45;94120.53;;;21.68;70.92
61292;BME280;47165;42.664;23.368;2022-09-17T07:54:10;94118.75;;;21.83;70.68
61292;BME280;47165;42.664;23.368;2022-09-17T07:56:36;94122.06;;;21.85;69.79
61292;BME280;47165;42.664;23.368;2022-09-17T07:59:02;94105.41;;;21.92;69.27
61292;BME280;47165;42.664;23.368;2022-09-17T08:01:28;94097.34;;;22.00;69.07
61292;BME280;47165;42.664;23.368;2022-09-17T08:03:53;94105.50;;;21.98;69.67
61292;BME280;47165;42.664;23.368;2022-09-17T08:06:21;94103.75;;;21.90;69.11
61292;BME280;47165;42.664;23.368;2022-09-17T08:08:48;94104.78;;;22.04;69.27
61292;BME280;47165;42.664;23.368;2022-09-17T08:11:17;94099.22;;;22.14;68.74
61292;BME280;47165;42.664;23.368;2022-09-17T08:13:46;94084.34;;;22.28;68.69
61292;BME280;47165;42.664;23.368;2022-09-17T08:16:12;94088.03;;;22.42;68.60
61292;BME280;47165;42.664;23.368;2022-09-17T08:18:38;94087.56;;;22.53;68.62
61292;BME280;47165;42.664;23.368;2022-09-17T08:21:06;94081.88;;;22.56;66.53
61292;BME280;47165;42.664;23.368;2022-09-17T08:23:36;94074.47;;;22.66;66.39
61292;BME280;47165;42.664;23.368;2022-09-17T08:26:03;94078.00;;;22.74;66.42
61292;BME280;47165;42.664;23.368;2022-09-17T08:28:29;94076.72;;;22.84;66.35
61292;BME280;47165;42.664;23.368;2022-09-17T08:31:03;94070.28;;;22.94;65.32
61292;BME280;47165;42.664;23.368;2022-09-17T08:33:34;94068.19;;;23.04;64.62
61292;BME280;47165;42.664;23.368;2022-09-17T08:36:00;94080.75;;;23.10;64.43
61292;BME280;47165;42.664;23.368;2022-09-17T08:38:27;94082.09;;;23.21;64.91
61292;BME280;47165;42.664;23.368;2022-09-17T08:40:59;94078.56;;;23.35;64.11
61292;BME280;47165;42.664;23.368;2022-09-17T08:43:29;94074.16;;;23.42;63.35
61292;BME280;47165;42.664;23.368;2022-09-17T08:45:57;94067.31;;;23.55;62.15
61292;BME280;47165;42.664;23.368;2022-09-17T08:48:29;94068.66;;;23.65;62.05
61292;BME280;47165;42.664;23.368;2022-09-17T08:50:56;94056.75;;;23.68;61.09
61292;BME280;47165;42.664;23.368;2022-09-17T08:56:12;94062.63;;;23.78;60.94
61292;BME280;47165;42.664;23.368;2022-09-17T09:01:58;94076.84;;;23.85;59.85
61292;BME280;47165;42.664;23.368;2022-09-17T09:07:14;94069.88;;;23.84;60.33
61292;BME280;47165;42.664;23.368;2022-09-17T09:12:31;94079.13;;;23.67;60.63
61292;BME280;47165;42.664;23.368;2022-09-17T09:15:02;94085.22;;;23.61;60.15
61292;BME280;47165;42.664;23.368;2022-09-17T09:17:39;94083.53;;;23.60;60.79
61292;BME280;47165;42.664;23.368;2022-09-17T09:20:14;94085.97;;;23.55;60.84
61292;BME280;47165;42.664;23.368;2022-09-17T09:22:49;94084.41;;;23.45;61.78
61292;BME280;47165;42.664;23.368;2022-09-17T09:25:23;94101.28;;;23.31;64.87
61292;BME280;47165;42.664;23.368;2022-09-17T09:30:50;94136.00;;;23.23;64.72
61292;BME280;47165;42.664;23.368;2022-09-17T09:33:25;94115.44;;;23.17;63.66
61292;BME280;47165;42.664;23.368;2022-09-17T09:35:52;94127.25;;;23.07;64.63
61292;BME280;47165;42.664;23.368;2022-09-17T09:38:40;94139.03;;;22.90;65.09
61292;BME280;47165;42.664;23.368;2022-09-17T09:41:11;94152.75;;;22.87;65.51
61292;BME280;47165;42.664;23.368;2022-09-17T09:46:36;94153.09;;;22.84;65.37
61292;BME280;47165;42.664;23.368;2022-09-17T09:49:25;94160.09;;;22.85;66.20
61292;BME280;47165;42.664;23.368;2022-09-17T09:57:43;94175.84;;;22.72;68.23
61292;BME280;47165;42.664;23.368;2022-09-17T10:00:27;94183.19;;;22.69;69.34
61292;BME280;47165;42.664;23.368;2022-09-17T10:05:33;94160.59;;;22.50;69.99
61292;BME280;47165;42.664;23.368;2022-09-17T10:08:10;94146.00;;;22.46;70.59
61292;BME280;47165;42.664;23.368;2022-09-17T10:10:37;94115.44;;;22.42;71.36
61292;BME280;47165;42.664;23.368;2022-09-17T10:13:18;94077.75;;;22.39;72.20
61292;BME280;47165;42.664;23.368;2022-09-17T10:15:44;94087.56;;;22.23;71.96
61292;BME280;47165;42.664;23.368;2022-09-17T10:18:11;94077.97;;;21.53;73.42
61292;BME280;47165;42.664;23.368;2022-09-17T10:21:06;94071.88;;;21.67;73.45
61292;BME280;47165;42.664;23.368;2022-09-17T10:23:37;94058.78;;;21.12;74.61
61292;BME280;47165;42.664;23.368;2022-09-17T10:26:19;94047.13;;;21.21;74.69
61292;BME280;47165;42.664;23.368;2022-09-17T10:28:54;94054.03;;;21.30;74.46
61292;BME280;47165;42.664;23.368;2022-09-17T10:31:21;94034.38;;;21.39;74.81
61292;BME280;47165;42.664;23.368;2022-09-17T10:34:02;94036.38;;;21.45;74.91
61292;BME280;47165;42.664;23.368;2022-09-17T10:36:40;94043.31;;;21.46;75.16
61292;BME280;47165;42.664;23.368;2022-09-17T10:42:01;94041.47;;;21.47;74.46
61292;BME280;47165;42.664;23.368;2022-09-17T10:44:35;94026.09;;;21.42;74.41
61292;BME280;47165;42.664;23.368;2022-09-17T10:47:10;94018.44;;;21.47;74.93
61292;BME280;47165;42.664;23.368;2022-09-17T10:49:45;94010.97;;;21.43;74.67
61292;BME280;47165;42.664;23.368;2022-09-17T10:52:38;93998.38;;;21.37;74.65
61292;BME280;47165;42.664;23.368;2022-09-17T11:11:41;94008.22;;;21.74;71.52
61292;BME280;47165;42.664;23.368;2022-09-17T11:34:31;94050.56;;;22.88;68.58
61292;BME280;47165;42.664;23.368;2022-09-17T11:39:56;94036.53;;;22.79;68.61
61292;BME280;47165;42.664;23.368;2022-09-17T11:42:31;94025.88;;;22.79;68.51
61292;BME280;47165;42.664;23.368;2022-09-17T11:45:01;94035.72;;;22.79;68.26
61292;BME280;47165;42.664;23.368;2022-09-17T11:50:25;94042.41;;;22.75;67.83
61292;BME280;47165;42.664;23.368;2022-09-17T11:55:32;94017.19;;;22.70;68.21
61292;BME280;47165;42.664;23.368;2022-09-17T11:58:11;93998.56;;;22.70;69.41
61292;BME280;47165;42.664;23.368;2022-09-17T12:00:43;93999.03;;;22.59;69.51
61292;BME280;47165;42.664;23.368;2022-09-17T12:05:42;93970.16;;;22.56;70.87
61292;BME280;47165;42.664;23.368;2022-09-17T12:13:35;93994.53;;;22.45;70.97
61292;BME280;47165;42.664;23.368;2022-09-17T12:16:26;93999.59;;;22.40;70.52
61292;BME280;47165;42.664;23.368;2022-09-17T12:21:40;93998.03;;;22.45;70.85
61292;BME280;47165;42.664;23.368;2022-09-17T12:24:36;94004.09;;;22.54;71.04
61292;BME280;47165;42.664;23.368;2022-09-17T12:30:13;93979.41;;;22.45;70.95
61292;BME280;47165;42.664;23.368;2022-09-17T12:59:18;93961.63;;;22.01;69.54
61292;BME280;47165;42.664;23.368;2022-09-17T13:10:18;93951.16;;;22.00;73.75
61292;BME280;47165;42.664;23.368;2022-09-17T13:12:52;93946.78;;;22.07;73.68
61292;BME280;47165;42.664;23.368;2022-09-17T13:15:56;93959.34;;;22.13;73.16
61292;BME280;47165;42.664;23.368;2022-09-17T13:23:54;93953.91;;;22.06;73.10
61292;BME280;47165;42.664;23.368;2022-09-17T13:26:32;93948.69;;;22.13;73.43
61292;BME280;47165;42.664;23.368;2022-09-17T13:28:59;93945.50;;;22.03;72.25
61292;BME280;47165;42.664;23.368;2022-09-17T13:34:00;93911.38;;;22.06;73.84
61292;BME280;47165;42.664;23.368;2022-09-17T13:36:39;93905.78;;;22.01;73.55
61292;BME280;47165;42.664;23.368;2022-09-17T13:39:08;93894.34;;;22.01;73.40
61292;BME280;47165;42.664;23.368;2022-09-17T13:41:37;93891.41;;;21.96;72.08
61292;BME280;47165;42.664;23.368;2022-09-17T13:44:04;93889.13;;;21.93;72.26
61292;BME280;47165;42.664;23.368;2022-09-17T13:46:30;93889.56;;;21.81;69.80
61292;BME280;47165;42.664;23.368;2022-09-17T13:49:00;93874.25;;;21.83;69.97
61292;BME280;47165;42.664;23.368;2022-09-17T13:54:03;93862.34;;;21.79;72.43
61292;BME280;47165;42.664;23.368;2022-09-17T13:56:38;93857.50;;;21.83;72.27
61292;BME280;47165;42.664;23.368;2022-09-17T13:59:23;93846.06;;;21.82;72.23
61292;BME280;47165;42.664;23.368;2022-09-17T14:21:19;93846.22;;;21.51;72.80
61292;BME280;47165;42.664;23.368;2022-09-17T14:23:54;93840.81;;;21.44;72.89
61292;BME280;47165;42.664;23.368;2022-09-17T14:29:10;93850.47;;;21.45;71.06
61292;BME280;47165;42.664;23.368;2022-09-17T14:31:40;93854.28;;;21.43;72.11
61292;BME280;47165;42.664;23.368;2022-09-17T14:34:17;93855.25;;;21.42;71.98
61292;BME280;47165;42.664;23.368;2022-09-17T14:36:43;93838.41;;;21.35;72.08
61292;BME280;47165;42.664;23.368;2022-09-17T14:39:15;93824.22;;;21.27;72.18
61292;BME280;47165;42.664;23.368;2022-09-17T14:41:45;93823.34;;;21.12;72.56
61292;BME280;47165;42.664;23.368;2022-09-17T14:44:13;93806.34;;;21.06;71.29
61292;BME280;47165;42.664;23.368;2022-09-17T14:47:16;93741.16;;;21.04;71.26
61292;BME280;47165;42.664;23.368;2022-09-17T14:49:44;93789.78;;;21.04;71.15
61292;BME280;47165;42.664;23.368;2022-09-17T14:52:31;93842.97;;;21.11;73.27
61292;BME280;47165;42.664;23.368;2022-09-17T14:55:20;93813.13;;;21.09;71.99
61292;BME280;47165;42.664;23.368;2022-09-17T14:57:53;93794.72;;;21.07;71.66
61292;BME280;47165;42.664;23.368;2022-09-17T15:00:24;93783.91;;;20.94;72.03
61292;BME280;47165;42.664;23.368;2022-09-17T15:02:54;93773.72;;;20.98;72.61
61292;BME280;47165;42.664;23.368;2022-09-17T15:05:28;93761.31;;;20.98;73.49
61292;BME280;47165;42.664;23.368;2022-09-17T15:08:22;93789.00;;;20.81;72.31
61292;BME280;47165;42.664;23.368;2022-09-17T15:10:52;93786.50;;;20.79;72.85
61292;BME280;47165;42.664;23.368;2022-09-17T15:13:27;93774.88;;;20.65;72.44
61292;BME280;47165;42.664;23.368;2022-09-17T15:18:41;93759.25;;;20.70;74.17
61292;BME280;47165;42.664;23.368;2022-09-17T15:23:42;93774.88;;;20.65;72.92
61292;BME280;47165;42.664;23.368;2022-09-17T15:26:19;93763.56;;;20.72;72.32
61292;BME280;47165;42.664;23.368;2022-09-17T15:28:48;93750.56;;;20.77;72.71
61292;BME280;47165;42.664;23.368;2022-09-17T15:31:18;93753.94;;;20.70;72.61
61292;BME280;47165;42.664;23.368;2022-09-17T15:33:45;93758.88;;;20.74;72.22
61292;BME280;47165;42.664;23.368;2022-09-17T15:36:24;93751.84;;;20.81;71.33
61292;BME280;47165;42.664;23.368;2022-09-17T15:38:52;93757.78;;;20.83;71.65
61292;BME280;47165;42.664;23.368;2022-09-17T15:43:45;93764.56;;;20.85;70.50
61292;BME280;47165;42.664;23.368;2022-09-17T15:46:28;93756.25;;;20.74;70.62
61292;BME280;47165;42.664;23.368;2022-09-17T15:48:58;93763.81;;;20.77;70.26
61292;BME280;47165;42.664;23.368;2022-09-17T15:51:34;93750.47;;;20.85;71.58
61292;BME280;47165;42.664;23.368;2022-09-17T15:54:02;93748.13;;;20.90;72.68
61292;BME280;47165;42.664;23.368;2022-09-17T15:56:33;93779.41;;;20.95;73.42
61292;BME280;47165;42.664;23.368;2022-09-17T15:59:25;93743.72;;;20.97;72.13
61292;BME280;47165;42.664;23.368;2022-09-17T16:01:53;93748.84;;;20.99;72.34
61292;BME280;47165;42.664;23.368;2022-09-17T16:12:01;93724.41;;;21.03;72.49
61292;BME280;47165;42.664;23.368;2022-09-17T16:14:27;93716.06;;;20.92;72.44
61292;BME280;47165;42.664;23.368;2022-09-17T16:16:52;93715.56;;;20.96;72.16
61292;BME280;47165;42.664;23.368;2022-09-17T16:19:20;93717.19;;;20.97;72.91
61292;BME280;47165;42.664;23.368;2022-09-17T16:21:45;93745.38;;;20.98;73.58
61292;BME280;47165;42.664;23.368;2022-09-17T16:24:11;93740.44;;;20.95;73.38
61292;BME280;47165;42.664;23.368;2022-09-17T16:26:37;93729.00;;;20.95;72.60
61292;BME280;47165;42.664;23.368;2022-09-17T16:29:04;93725.78;;;20.84;72.39
61292;BME280;47165;42.664;23.368;2022-09-17T16:31:32;93714.41;;;20.61;72.80
61292;BME280;47165;42.664;23.368;2022-09-17T16:33:58;93701.13;;;20.61;74.06
61292;BME280;47165;42.664;23.368;2022-09-17T16:36:23;93693.38;;;20.59;73.25
61292;BME280;47165;42.664;23.368;2022-09-17T16:38:49;93675.28;;;20.40;68.87
61292;BME280;47165;42.664;23.368;2022-09-17T16:41:14;93666.84;;;20.36;67.90
61292;BME280;47165;42.664;23.368;2022-09-17T16:43:40;93675.81;;;20.58;63.53
61292;BME280;47165;42.664;23.368;2022-09-17T16:46:07;93667.34;;;20.78;64.47
61292;BME280;47165;42.664;23.368;2022-09-17T16:48:34;93647.81;;;20.85;60.85
61292;BME280;47165;42.664;23.368;2022-09-17T16:51:08;93648.09;;;21.05;63.01